Time;durP1;ratioP1;P1;durP2;ratioP2;P2;SDS_P1;SDS_P2;PMS_P1;PMS_P2;Temp;Humidity;BMP_temperature;BMP_pressure;BME280_temperature;BME280_humidity;BME280_pressure;Samples;Min_cycle;Max_cycle;Signal;HPM_P1;HPM_P2
2023/10/08 00:01:57;;;;;;;2.63;0.70;;;19.30;99.90;;;;;;5068434;28;20216;-77
2023/10/08 00:04:29;;;;;;;4.70;0.65;;;19.30;99.90;;;;;;5073982;28;20600;-76
2023/10/08 00:06:59;;;;;;;1.95;0.65;;;19.20;99.90;;;;;;5068143;28;20249;-77
2023/10/08 00:09:35;;;;;;;1.65;0.70;;;19.30;99.90;;;;;;5082994;28;20619;-77
2023/10/08 00:12:07;;;;;;;2.17;0.73;;;19.30;99.90;;;;;;5090871;28;20196;-77
2023/10/08 00:14:44;;;;;;;3.53;0.70;;;19.30;99.90;;;;;;5091281;28;20197;-77
2023/10/08 00:17:18;;;;;;;3.88;0.85;;;19.30;99.90;;;;;;5091802;28;20194;-76
2023/10/08 00:19:52;;;;;;;1.33;0.75;;;19.30;99.90;;;;;;5091769;28;20216;-78
2023/10/08 00:22:25;;;;;;;6.47;0.80;;;19.40;99.90;;;;;;5091317;28;20186;-77
2023/10/08 00:24:58;;;;;;;3.50;0.70;;;19.40;99.90;;;;;;5090854;28;20195;-77
2023/10/08 00:27:38;;;;;;;2.25;0.70;;;19.40;99.90;;;;;;5092036;28;20275;-77
2023/10/08 00:30:17;;;;;;;2.70;0.80;;;19.40;99.90;;;;;;5094980;28;20187;-77
2023/10/08 00:32:50;;;;;;;2.08;0.80;;;19.50;99.90;;;;;;5094785;28;20255;-78
2023/10/08 00:35:22;;;;;;;2.92;0.55;;;19.60;99.90;;;;;;5094932;28;20631;-77
2023/10/08 00:37:53;;;;;;;1.98;0.70;;;19.80;99.90;;;;;;5095797;28;20717;-77
2023/10/08 00:40:25;;;;;;;3.58;1.00;;;20.00;99.90;;;;;;5096699;28;20227;-77
2023/10/08 00:42:56;;;;;;;3.22;0.60;;;20.10;99.90;;;;;;5096555;28;20633;-79
2023/10/08 00:45:30;;;;;;;4.35;1.15;;;20.40;99.90;;;;;;5096507;28;20188;-78
2023/10/08 00:48:03;;;;;;;1.95;0.63;;;20.90;99.90;;;;;;5096554;28;20668;-77
2023/10/08 00:50:42;;;;;;;1.80;0.68;;;21.40;99.90;;;;;;5096530;28;20199;-77
2023/10/08 00:53:21;;;;;;;2.55;0.60;;;21.70;99.90;;;;;;5096450;28;20227;-78
2023/10/08 00:55:54;;;;;;;1.95;0.60;;;21.90;99.90;;;;;;5096264;28;20231;-77
2023/10/08 00:58:27;;;;;;;1.25;0.57;;;22.00;99.90;;;;;;5096408;28;20192;-77
2023/10/08 01:01:00;;;;;;;2.53;0.80;;;22.00;99.90;;;;;;5096183;28;20232;-77
2023/10/08 01:03:35;;;;;;;2.38;0.80;;;21.60;99.90;;;;;;5096531;28;20208;-76
2023/10/08 01:06:10;;;;;;;1.40;0.70;;;21.10;99.90;;;;;;5096256;28;20202;-76
2023/10/08 01:08:47;;;;;;;2.50;0.68;;;21.20;99.90;;;;;;5086023;28;20205;-75
2023/10/08 01:11:33;;;;;;;1.85;0.57;;;21.60;99.90;;;;;;5075551;28;20730;-76
2023/10/08 01:14:07;;;;;;;1.73;0.70;;;22.10;99.90;;;;;;5075793;28;20193;-76
2023/10/08 01:16:39;;;;;;;2.83;0.77;;;22.40;99.90;;;;;;5075849;28;20233;-77
2023/10/08 01:19:16;;;;;;;2.92;1.05;;;22.70;99.90;;;;;;5075696;28;20278;-76
2023/10/08 01:21:47;;;;;;;2.47;0.60;;;22.70;99.90;;;;;;5075577;28;20685;-77
2023/10/08 01:24:24;;;;;;;2.90;0.50;;;23.10;99.90;;;;;;5075432;28;20191;-76
2023/10/08 01:26:54;;;;;;;1.58;0.70;;;22.70;99.90;;;;;;5075535;28;20537;-75
2023/10/08 01:29:28;;;;;;;1.38;0.57;;;22.60;99.90;;;;;;5075479;28;20617;-76
2023/10/08 01:32:01;;;;;;;1.88;0.52;;;22.70;99.90;;;;;;5075450;28;20637;-76
2023/10/08 01:34:35;;;;;;;1.75;0.60;;;22.70;99.90;;;;;;5075296;28;20254;-77
2023/10/08 01:37:08;;;;;;;1.83;0.65;;;22.40;99.90;;;;;;5075341;28;20272;-79
2023/10/08 01:39:42;;;;;;;3.45;0.50;;;21.80;99.90;;;;;;5074749;28;20238;-79
2023/10/08 01:42:17;;;;;;;2.58;0.60;;;21.50;99.90;;;;;;5075115;28;20228;-79
2023/10/08 01:44:49;;;;;;;2.85;0.85;;;21.60;99.90;;;;;;5075177;28;20195;-78
2023/10/08 01:47:20;;;;;;;3.33;0.90;;;22.00;99.90;;;;;;5075213;28;20211;-81
2023/10/08 01:49:58;;;;;;;2.53;0.90;;;22.40;99.90;;;;;;5075135;28;20197;-78
2023/10/08 01:52:29;;;;;;;1.98;0.88;;;22.60;99.90;;;;;;5075244;28;20239;-81
2023/10/08 01:55:02;;;;;;;1.58;0.70;;;22.80;99.90;;;;;;5074746;28;20284;-79
2023/10/08 01:57:33;;;;;;;2.53;0.70;;;22.60;99.90;;;;;;5075296;28;20651;-78
2023/10/08 02:00:04;;;;;;;2.53;0.70;;;22.20;99.90;;;;;;5074756;28;20229;-79
2023/10/08 02:02:35;;;;;;;4.10;1.20;;;21.90;99.90;;;;;;5075376;28;20246;-77
2023/10/08 02:05:06;;;;;;;3.75;1.00;;;21.60;99.90;;;;;;5071420;28;20223;-79
2023/10/08 02:07:37;;;;;;;4.25;0.90;;;21.40;99.90;;;;;;5074633;28;20207;-79
2023/10/08 02:10:11;;;;;;;1.90;0.70;;;21.10;99.90;;;;;;5074706;28;20200;-79
2023/10/08 02:12:43;;;;;;;4.70;0.65;;;20.90;99.90;;;;;;5074561;28;20193;-77
2023/10/08 02:15:14;;;;;;;3.10;0.90;;;20.70;99.90;;;;;;5074746;28;20670;-77
2023/10/08 02:17:45;;;;;;;2.35;0.70;;;20.40;99.90;;;;;;5075216;28;20736;-77
2023/10/08 02:20:16;;;;;;;4.15;0.90;;;20.20;99.90;;;;;;5074400;28;20203;-77
2023/10/08 02:22:47;;;;;;;3.03;0.80;;;20.10;99.90;;;;;;5074261;28;20193;-77
2023/10/08 02:25:20;;;;;;;4.70;0.80;;;20.10;99.90;;;;;;5074377;28;20192;-77
2023/10/08 02:27:51;;;;;;;2.83;0.93;;;20.10;99.90;;;;;;5074373;28;20189;-79
2023/10/08 02:30:22;;;;;;;6.60;0.80;;;19.90;99.90;;;;;;5074301;28;20224;-78
2023/10/08 02:32:52;;;;;;;4.32;1.00;;;19.90;99.90;;;;;;5073941;28;20228;-78
2023/10/08 02:35:23;;;;;;;2.28;0.80;;;19.70;99.90;;;;;;5074206;28;20200;-79
2023/10/08 02:37:54;;;;;;;2.78;1.00;;;19.70;99.90;;;;;;5073944;28;20653;-78
2023/10/08 02:40:28;;;;;;;1.58;0.68;;;19.80;99.90;;;;;;5074033;28;20196;-78
2023/10/08 02:43:00;;;;;;;3.35;1.00;;;19.80;99.90;;;;;;5073983;28;20197;-80
2023/10/08 02:45:31;;;;;;;4.63;0.80;;;20.20;99.90;;;;;;5074035;28;20189;-79
2023/10/08 02:48:02;;;;;;;2.25;0.82;;;20.60;99.90;;;;;;5073998;28;20197;-79
2023/10/08 02:50:33;;;;;;;2.72;0.73;;;20.80;99.90;;;;;;5073371;28;20205;-78
2023/10/08 02:53:10;;;;;;;3.33;1.00;;;21.00;99.90;;;;;;5073622;28;20199;-78
2023/10/08 02:55:44;;;;;;;3.30;0.80;;;20.90;99.90;;;;;;5073928;28;20193;-77
2023/10/08 02:58:15;;;;;;;4.05;1.10;;;20.80;99.90;;;;;;5073766;28;20313;-77
2023/10/08 03:00:46;;;;;;;2.67;0.80;;;20.60;99.90;;;;;;5073569;28;20282;-77
2023/10/08 03:03:18;;;;;;;2.08;0.90;;;20.30;99.90;;;;;;5073650;28;20193;-77
2023/10/08 03:05:50;;;;;;;3.45;0.73;;;20.10;99.90;;;;;;5073567;28;20197;-74
2023/10/08 03:08:21;;;;;;;4.40;0.65;;;20.00;99.90;;;;;;5074011;28;20221;-77
2023/10/08 03:10:56;;;;;;;3.00;0.73;;;19.80;99.90;;;;;;5073721;28;20296;-77
2023/10/08 03:13:28;;;;;;;2.40;0.80;;;19.70;99.90;;;;;;5073455;28;20196;-78
2023/10/08 03:16:09;;;;;;;2.67;0.77;;;19.70;99.90;;;;;;5073548;28;20189;-78
2023/10/08 03:18:42;;;;;;;4.65;0.77;;;20.00;99.90;;;;;;5073868;28;20545;-78
2023/10/08 03:21:43;;;;;;;4.50;0.90;;;20.20;99.90;;;;;;5073171;28;20213;-78
2023/10/08 03:24:29;;;;;;;2.47;0.80;;;20.50;99.90;;;;;;5073344;28;20250;-81
2023/10/08 03:27:11;;;;;;;3.97;1.10;;;20.70;99.90;;;;;;5073476;28;20185;-81
2023/10/08 03:29:45;;;;;;;3.85;1.02;;;20.80;99.90;;;;;;5073401;28;20225;-80
2023/10/08 03:32:17;;;;;;;2.65;0.80;;;20.80;99.90;;;;;;5073105;28;20561;-79
2023/10/08 03:34:54;;;;;;;3.97;0.90;;;20.90;99.90;;;;;;5073092;28;20197;-80
2023/10/08 03:37:40;;;;;;;3.17;0.80;;;20.90;99.90;;;;;;5073352;28;20216;-86
2023/10/08 03:40:25;;;;;;;8.00;1.65;;;21.00;99.90;;;;;;5073331;28;20218;-79
2023/10/08 03:42:59;;;;;;;3.72;0.73;;;20.90;99.90;;;;;;5073198;28;20199;-81
2023/10/08 03:48:17;;;;;;;2.33;0.80;;;21.10;99.90;;;;;;5073499;28;20251;-79
2023/10/08 03:50:56;;;;;;;2.40;0.82;;;21.20;99.90;;;;;;5073072;28;20668;-79
2023/10/08 03:53:30;;;;;;;1.95;0.60;;;21.20;99.90;;;;;;5073140;28;20193;-79
2023/10/08 03:56:05;;;;;;;1.55;0.70;;;21.20;99.90;;;;;;5065006;28;20530;-76
2023/10/08 03:58:42;;;;;;;3.63;0.75;;;21.10;99.90;;;;;;5069947;28;20232;-73
2023/10/08 04:01:19;;;;;;;2.03;0.60;;;21.00;99.90;;;;;;5066307;28;20227;-72
2023/10/08 04:04:00;;;;;;;2.10;0.60;;;21.10;99.90;;;;;;5070408;28;20913;-76
2023/10/08 04:06:37;;;;;;;2.92;0.60;;;21.00;99.90;;;;;;5069590;28;20188;-76
2023/10/08 04:09:23;;;;;;;1.23;0.60;;;21.00;99.90;;;;;;5070912;28;20188;-75
2023/10/08 04:11:54;;;;;;;3.83;0.80;;;20.80;99.90;;;;;;5072763;28;20596;-73
2023/10/08 04:14:29;;;;;;;2.70;0.77;;;20.80;99.90;;;;;;5068381;28;20558;-75
2023/10/08 04:17:00;;;;;;;3.13;0.75;;;20.90;99.90;;;;;;5072351;28;20201;-73
2023/10/08 04:19:32;;;;;;;3.35;0.70;;;20.90;99.90;;;;;;5071128;28;20197;-73
2023/10/08 04:22:03;;;;;;;2.92;0.63;;;20.70;99.90;;;;;;5074743;28;20216;-75
2023/10/08 04:24:36;;;;;;;5.10;0.70;;;20.70;99.90;;;;;;5074463;28;20191;-72
2023/10/08 04:27:09;;;;;;;2.03;0.50;;;20.70;99.90;;;;;;5074737;28;20599;-72
2023/10/08 04:29:42;;;;;;;2.35;1.15;;;20.70;99.90;;;;;;5073195;28;20281;-72
2023/10/08 04:32:22;;;;;;;2.17;0.70;;;20.70;99.90;;;;;;5066802;28;20265;-72
2023/10/08 04:34:56;;;;;;;1.23;0.57;;;20.70;99.90;;;;;;5076015;28;20688;-72
2023/10/08 04:37:32;;;;;;;2.47;0.80;;;20.60;99.90;;;;;;5075059;28;20193;-72
2023/10/08 04:40:04;;;;;;;2.15;0.60;;;20.60;99.90;;;;;;5074027;28;20189;-72
2023/10/08 04:42:37;;;;;;;2.10;0.75;;;20.70;99.90;;;;;;5068502;28;20236;-72
2023/10/08 04:45:13;;;;;;;5.03;0.65;;;20.70;99.90;;;;;;5073944;28;20243;-75
2023/10/08 04:47:44;;;;;;;1.55;0.50;;;20.70;99.90;;;;;;5070749;28;20599;-73
2023/10/08 04:50:18;;;;;;;2.63;0.68;;;20.80;99.90;;;;;;5072097;28;20243;-72
2023/10/08 04:52:58;;;;;;;1.90;0.50;;;20.80;99.90;;;;;;5073385;28;20192;-75
2023/10/08 04:55:31;;;;;;;1.90;0.65;;;20.50;99.90;;;;;;5074289;28;20600;-74
2023/10/08 04:58:05;;;;;;;2.17;0.50;;;20.40;99.90;;;;;;5075236;28;20231;-73
2023/10/08 05:00:53;;;;;;;2.50;0.70;;;20.30;99.90;;;;;;5073740;28;20193;-76
2023/10/08 05:03:31;;;;;;;8.77;0.90;;;20.30;99.90;;;;;;5072655;28;20208;-75
2023/10/08 05:06:16;;;;;;;1.38;0.60;;;20.30;99.90;;;;;;5070852;28;20193;-77
2023/10/08 05:08:57;;;;;;;1.67;0.55;;;20.40;99.90;;;;;;5072114;28;20703;-75
2023/10/08 05:11:46;;;;;;;4.00;0.77;;;20.20;99.90;;;;;;5069059;28;20204;-77
2023/10/08 05:14:28;;;;;;;1.73;0.60;;;20.20;99.90;;;;;;5070494;28;20205;-76
2023/10/08 05:17:03;;;;;;;3.58;0.63;;;20.00;99.90;;;;;;5073366;28;20197;-72
2023/10/08 05:22:43;;;;;;;2.00;0.60;;;19.80;99.90;;;;;;5071203;28;20216;-71
2023/10/08 05:25:35;;;;;;;1.50;0.55;;;19.90;99.90;;;;;;5071026;28;20288;-73
2023/10/08 05:28:24;;;;;;;2.88;0.70;;;19.80;99.90;;;;;;5067505;28;20204;-75
2023/10/08 05:31:11;;;;;;;2.13;0.60;;;19.80;99.90;;;;;;5068512;28;20193;-73
2023/10/08 05:33:59;;;;;;;2.20;0.50;;;19.80;99.90;;;;;;5057738;28;20232;-75
2023/10/08 05:36:35;;;;;;;3.60;0.60;;;19.80;99.90;;;;;;5071887;28;20189;-75
2023/10/08 05:39:20;;;;;;;1.58;0.57;;;19.60;99.90;;;;;;5072239;28;20234;-71
2023/10/08 05:41:52;;;;;;;1.90;0.60;;;19.60;99.90;;;;;;5072475;28;20215;-74
2023/10/08 05:44:38;;;;;;;1.55;0.50;;;19.60;99.90;;;;;;5073801;28;20189;-72
2023/10/08 05:47:28;;;;;;;4.03;0.70;;;19.60;99.90;;;;;;5073894;28;20202;-75
2023/10/08 05:53:15;;;;;;;1.67;0.70;;;19.60;99.90;;;;;;5042319;28;20291;-72
2023/10/08 05:55:47;;;;;;;2.85;0.75;;;19.60;99.90;;;;;;5071427;28;20197;-77
2023/10/08 05:58:35;;;;;;;1.55;0.40;;;19.60;99.90;;;;;;5071486;28;20213;-71
2023/10/08 06:01:25;;;;;;;2.15;0.50;;;19.60;99.90;;;;;;5073137;28;20699;-72
2023/10/08 06:04:20;;;;;;;2.40;0.55;;;19.50;99.90;;;;;;5072736;28;20197;-72
2023/10/08 06:07:12;;;;;;;2.55;0.55;;;19.50;99.90;;;;;;5073989;28;20203;-76
2023/10/08 06:09:50;;;;;;;2.70;0.50;;;19.40;99.90;;;;;;5070849;28;20192;-75
2023/10/08 06:12:30;;;;;;;0.70;0.40;;;19.50;99.90;;;;;;5073636;28;20201;-72
2023/10/08 06:15:11;;;;;;;2.00;0.43;;;19.50;99.90;;;;;;5070296;28;20530;-75
2023/10/08 06:18:04;;;;;;;1.27;0.40;;;19.40;99.90;;;;;;5071422;28;20192;-75
2023/10/08 06:20:42;;;;;;;0.98;0.50;;;19.40;99.90;;;;;;5072227;28;20548;-75
2023/10/08 06:23:18;;;;;;;0.93;0.50;;;19.30;99.90;;;;;;5073994;28;20235;-75
2023/10/08 06:25:54;;;;;;;2.92;0.50;;;19.30;99.90;;;;;;5072230;28;20613;-75
2023/10/08 06:28:26;;;;;;;1.50;0.50;;;19.30;99.90;;;;;;5073690;28;20196;-74
2023/10/08 06:30:58;;;;;;;4.13;0.77;;;19.30;99.90;;;;;;5065576;28;20201;-75
2023/10/08 06:33:30;;;;;;;2.85;0.63;;;19.30;99.90;;;;;;5073881;28;20239;-77
2023/10/08 06:36:13;;;;;;;2.03;0.60;;;19.20;99.90;;;;;;5074180;28;20598;-74
2023/10/08 06:38:48;;;;;;;3.60;0.93;;;19.10;99.90;;;;;;5073111;28;20262;-75
2023/10/08 06:41:19;;;;;;;2.35;0.73;;;19.10;99.90;;;;;;5070642;28;20192;-74
2023/10/08 06:44:02;;;;;;;1.58;0.60;;;19.00;99.90;;;;;;5073300;28;20201;-75
2023/10/08 06:46:34;;;;;;;2.67;0.70;;;18.90;99.90;;;;;;5073679;28;20542;-75
2023/10/08 06:49:11;;;;;;;1.08;0.50;;;18.90;99.90;;;;;;5070853;28;20189;-76
2023/10/08 06:51:43;;;;;;;2.20;0.60;;;18.80;99.90;;;;;;5072832;28;20200;-74
2023/10/08 06:54:17;;;;;;;1.67;0.50;;;18.80;99.90;;;;;;5073492;28;20193;-74
2023/10/08 06:56:51;;;;;;;3.35;0.57;;;18.80;99.90;;;;;;5068784;28;20201;-74
2023/10/08 06:59:23;;;;;;;2.22;0.68;;;18.70;99.90;;;;;;5063064;28;20216;-75
2023/10/08 07:01:54;;;;;;;3.30;0.73;;;18.70;99.90;;;;;;5069259;28;20215;-75
2023/10/08 07:04:24;;;;;;;1.52;0.50;;;18.60;99.90;;;;;;5066188;28;20215;-75
2023/10/08 07:07:00;;;;;;;4.82;0.60;;;18.50;99.90;;;;;;5068592;28;20200;-76
2023/10/08 07:09:36;;;;;;;2.10;0.70;;;18.50;99.90;;;;;;5068780;28;20189;-74
2023/10/08 07:12:13;;;;;;;1.65;0.68;;;18.50;99.90;;;;;;5065711;28;20207;-75
2023/10/08 07:14:46;;;;;;;5.53;0.70;;;18.40;99.90;;;;;;5068158;28;20228;-76
2023/10/08 07:17:19;;;;;;;3.08;0.70;;;18.40;99.90;;;;;;5068785;28;20236;-75
2023/10/08 07:19:51;;;;;;;3.20;0.70;;;18.30;99.90;;;;;;5067001;28;20236;-75
2023/10/08 07:22:28;;;;;;;1.95;0.57;;;18.30;99.90;;;;;;5067986;28;20273;-75
2023/10/08 07:25:01;;;;;;;2.67;0.80;;;18.20;99.90;;;;;;5067181;28;20215;-74
2023/10/08 07:27:33;;;;;;;2.67;0.60;;;18.20;99.90;;;;;;5069019;28;20678;-75
2023/10/08 07:30:10;;;;;;;2.90;0.63;;;18.10;99.90;;;;;;5067728;28;20250;-75
2023/10/08 07:32:40;;;;;;;4.25;1.60;;;18.10;99.90;;;;;;5070449;28;20244;-75
2023/10/08 07:35:24;;;;;;;2.25;0.90;;;18.00;99.90;;;;;;5070980;28;20633;-75
2023/10/08 07:37:56;;;;;;;2.47;0.60;;;18.00;99.90;;;;;;5070575;28;20195;-74
2023/10/08 07:40:33;;;;;;;2.28;0.60;;;17.90;99.90;;;;;;5072983;28;20663;-75
2023/10/08 07:43:08;;;;;;;1.45;0.50;;;17.90;99.90;;;;;;5072858;28;20218;-75
2023/10/08 07:45:39;;;;;;;1.30;0.60;;;17.80;99.90;;;;;;5073103;28;20193;-74
2023/10/08 07:48:10;;;;;;;1.17;0.60;;;17.80;99.90;;;;;;5073003;28;20663;-75
2023/10/08 07:50:46;;;;;;;1.83;0.68;;;17.70;99.90;;;;;;5073173;28;20686;-75
2023/10/08 07:53:19;;;;;;;1.30;0.57;;;17.70;99.90;;;;;;5073139;28;20644;-75
2023/10/08 07:55:52;;;;;;;1.88;0.68;;;17.70;99.90;;;;;;5073006;28;20495;-74
2023/10/08 07:58:23;;;;;;;1.23;0.63;;;17.60;99.90;;;;;;5073124;28;20195;-74
2023/10/08 08:00:54;;;;;;;0.70;0.45;;;17.50;99.90;;;;;;5073082;28;20190;-75
2023/10/08 08:03:25;;;;;;;2.42;0.70;;;17.50;99.90;;;;;;5072910;28;20605;-75
2023/10/08 08:05:56;;;;;;;2.03;0.70;;;17.50;99.90;;;;;;5073074;28;20189;-75
2023/10/08 08:08:27;;;;;;;3.92;0.73;;;17.40;99.90;;;;;;5073018;28;20189;-75
2023/10/08 08:11:03;;;;;;;2.55;0.80;;;17.40;99.90;;;;;;5072793;28;20192;-74
2023/10/08 08:13:34;;;;;;;1.00;0.70;;;17.40;99.90;;;;;;5073004;28;20220;-74
2023/10/08 08:18:49;;;;;;;2.17;0.70;;;17.30;99.90;;;;;;5059618;28;20196;-75
2023/10/08 08:21:23;;;;;;;3.08;1.00;;;17.20;99.90;;;;;;5072851;28;20239;-74
2023/10/08 08:24:04;;;;;;;2.13;0.70;;;17.30;99.90;;;;;;5072826;28;20688;-75
2023/10/08 08:27:00;;;;;;;3.45;0.70;;;17.20;99.90;;;;;;5072656;28;20216;-74
2023/10/08 08:29:44;;;;;;;2.42;0.70;;;17.20;99.90;;;;;;5072854;28;20193;-75
2023/10/08 08:32:15;;;;;;;2.10;0.70;;;17.20;99.90;;;;;;5072646;28;20197;-73
2023/10/08 08:34:47;;;;;;;1.70;0.60;;;17.20;99.90;;;;;;5071839;28;20189;-75
2023/10/08 08:37:18;;;;;;;2.03;0.70;;;17.20;99.90;;;;;;5072453;28;20197;-75
2023/10/08 08:39:49;;;;;;;3.33;1.23;;;17.10;99.90;;;;;;5072531;28;20534;-75
2023/10/08 08:42:26;;;;;;;2.20;1.00;;;17.10;99.90;;;;;;5068857;28;20224;-75
2023/10/08 08:44:59;;;;;;;3.00;0.70;;;17.10;99.90;;;;;;5071882;28;20682;-74
2023/10/08 08:47:31;;;;;;;2.95;0.82;;;17.00;99.90;;;;;;5072680;28;20192;-74
2023/10/08 08:50:08;;;;;;;2.17;0.80;;;17.00;99.90;;;;;;5075841;28;20215;-75
2023/10/08 08:52:39;;;;;;;1.52;0.70;;;17.00;99.90;;;;;;5076156;28;20545;-74
2023/10/08 08:55:14;;;;;;;1.25;0.60;;;17.00;99.90;;;;;;5076014;28;20188;-74
2023/10/08 08:57:50;;;;;;;1.38;0.60;;;17.00;99.90;;;;;;5076174;28;20192;-75
2023/10/08 09:00:25;;;;;;;1.83;0.70;;;17.00;99.90;;;;;;5056357;28;20200;-74
2023/10/08 09:02:57;;;;;;;1.92;0.70;;;17.00;99.90;;;;;;5055784;28;20232;-74
2023/10/08 09:05:34;;;;;;;1.50;0.63;;;17.00;99.90;;;;;;5055990;28;20194;-75
2023/10/08 09:08:06;;;;;;;2.92;1.00;;;16.90;99.90;;;;;;5055749;28;20193;-74
2023/10/08 09:10:50;;;;;;;2.28;0.70;;;16.90;99.90;;;;;;5055807;28;20212;-74
2023/10/08 09:13:25;;;;;;;2.22;0.80;;;16.90;99.90;;;;;;5055758;28;20229;-75
2023/10/08 09:15:59;;;;;;;1.83;0.70;;;16.90;99.90;;;;;;5055700;28;20189;-74
2023/10/08 09:18:32;;;;;;;4.18;0.82;;;16.90;99.90;;;;;;5055822;28;20193;-75
2023/10/08 09:21:13;;;;;;;3.50;0.70;;;16.90;99.90;;;;;;5055632;28;20190;-74
2023/10/08 09:23:47;;;;;;;2.20;0.80;;;16.90;99.90;;;;;;5055396;28;20224;-74
2023/10/08 09:26:19;;;;;;;3.03;0.95;;;16.90;99.90;;;;;;5055521;28;20189;-74
2023/10/08 09:28:53;;;;;;;2.13;0.70;;;16.90;99.90;;;;;;5055561;28;20649;-74
2023/10/08 09:31:29;;;;;;;2.78;0.80;;;16.80;99.90;;;;;;5055516;28;20186;-73
2023/10/08 09:34:00;;;;;;;1.95;0.70;;;16.80;99.90;;;;;;5055266;28;20346;-74
2023/10/08 09:36:34;;;;;;;3.50;0.52;;;16.80;99.90;;;;;;5055509;28;20194;-74
2023/10/08 09:39:06;;;;;;;3.03;0.82;;;16.80;99.90;;;;;;5055562;28;20193;-74
2023/10/08 09:41:37;;;;;;;3.10;0.82;;;16.70;99.90;;;;;;5055444;28;20280;-75
2023/10/08 09:44:11;;;;;;;3.15;1.20;;;16.70;99.90;;;;;;5055281;28;20213;-75
2023/10/08 09:46:43;;;;;;;1.73;0.73;;;16.70;99.90;;;;;;5055200;28;20638;-75
2023/10/08 09:49:16;;;;;;;1.35;0.80;;;16.70;99.90;;;;;;5055265;28;20560;-75
2023/10/08 09:51:47;;;;;;;2.45;0.80;;;16.70;99.90;;;;;;5054970;28;20192;-74
2023/10/08 09:54:25;;;;;;;2.30;0.85;;;16.60;99.90;;;;;;5054999;28;20189;-75
2023/10/08 09:56:59;;;;;;;1.58;0.60;;;16.60;99.90;;;;;;5054996;28;20197;-74
2023/10/08 09:59:32;;;;;;;5.55;0.90;;;16.60;99.90;;;;;;5054797;28;20198;-75
2023/10/08 10:02:04;;;;;;;2.22;0.60;;;16.60;99.90;;;;;;5054834;28;20225;-75
2023/10/08 10:04:35;;;;;;;2.08;0.70;;;16.60;99.90;;;;;;5054895;28;20249;-74
2023/10/08 10:07:14;;;;;;;2.25;0.80;;;16.60;99.90;;;;;;5054592;28;20533;-75
2023/10/08 10:09:48;;;;;;;3.58;0.80;;;16.60;99.90;;;;;;5054838;28;20216;-74
2023/10/08 10:12:25;;;;;;;2.78;0.70;;;16.60;99.90;;;;;;5054635;28;20244;-75
2023/10/08 10:15:00;;;;;;;0.47;0.47;;;16.60;99.90;;;;;;5054668;28;20197;-75
2023/10/08 10:17:31;;;;;;;3.33;0.60;;;16.60;99.90;;;;;;5065635;28;20193;-74
2023/10/08 10:20:06;;;;;;;2.15;0.60;;;16.50;99.90;;;;;;5074622;28;20649;-75
2023/10/08 10:22:37;;;;;;;2.13;0.80;;;16.50;99.90;;;;;;5074216;28;20237;-74
2023/10/08 10:25:17;;;;;;;1.52;0.50;;;16.50;99.90;;;;;;5074428;28;20192;-75
2023/10/08 10:28:25;;;;;;;1.00;0.60;;;16.50;99.90;;;;;;5074690;28;20195;-74
2023/10/08 10:30:59;;;;;;;1.48;0.60;;;16.50;99.90;;;;;;5074304;28;20604;-74
2023/10/08 10:33:34;;;;;;;2.42;0.63;;;16.50;99.90;;;;;;5074162;28;20323;-74
2023/10/08 10:36:08;;;;;;;1.73;0.52;;;16.50;99.90;;;;;;5071696;28;20668;-74
2023/10/08 10:38:42;;;;;;;3.53;0.60;;;16.40;99.90;;;;;;5072612;28;20197;-73
2023/10/08 10:41:12;;;;;;;1.17;0.55;;;16.40;99.90;;;;;;5058538;28;20220;-74
2023/10/08 10:43:52;;;;;;;1.80;0.65;;;16.40;99.90;;;;;;5072848;28;20247;-74
2023/10/08 10:46:31;;;;;;;1.63;0.50;;;16.40;99.90;;;;;;5073960;28;20277;-74
2023/10/08 10:51:46;;;;;;;1.13;0.70;;;16.30;99.90;;;;;;5062247;28;20217;-75
2023/10/08 10:54:20;;;;;;;1.33;0.70;;;16.30;99.90;;;;;;5066829;28;20205;-74
2023/10/08 10:57:03;;;;;;;1.70;0.70;;;16.20;99.90;;;;;;5073194;28;20225;-74
2023/10/08 10:59:36;;;;;;;0.70;0.70;;;16.20;99.90;;;;;;5066792;28;20561;-75
2023/10/08 11:02:20;;;;;;;1.95;0.73;;;16.20;99.90;;;;;;5073087;28;20308;-74
2023/10/08 11:04:51;;;;;;;1.63;0.75;;;16.10;99.90;;;;;;5073360;28;20220;-75
2023/10/08 11:07:23;;;;;;;1.60;0.77;;;16.10;99.90;;;;;;5073218;28;20197;-73
2023/10/08 11:09:55;;;;;;;2.25;0.70;;;16.00;99.90;;;;;;5073244;28;20637;-74
2023/10/08 11:12:42;;;;;;;1.25;0.60;;;16.00;99.90;;;;;;5072404;28;20196;-74
2023/10/08 11:15:15;;;;;;;1.65;0.80;;;16.00;99.90;;;;;;5073306;28;20201;-75
2023/10/08 11:17:48;;;;;;;2.08;0.63;;;16.00;99.90;;;;;;5071526;28;20285;-74
2023/10/08 11:20:29;;;;;;;3.88;0.70;;;15.90;99.90;;;;;;5071187;28;20201;-74
2023/10/08 11:23:17;;;;;;;1.58;0.70;;;15.90;99.90;;;;;;5060243;28;20680;-74
2023/10/08 11:25:59;;;;;;;2.53;0.75;;;15.90;99.90;;;;;;5065805;28;20201;-74
2023/10/08 11:28:33;;;;;;;2.92;0.90;;;15.90;99.90;;;;;;5072905;28;20683;-74
2023/10/08 11:31:09;;;;;;;1.73;0.90;;;15.90;99.90;;;;;;5072716;28;20203;-75
2023/10/08 11:33:48;;;;;;;0.85;0.50;;;15.90;99.90;;;;;;5072984;28;20264;-74
2023/10/08 11:36:27;;;;;;;1.23;0.73;;;15.90;99.90;;;;;;5072800;28;20254;-73
2023/10/08 11:39:07;;;;;;;1.77;0.73;;;15.90;99.90;;;;;;5052353;28;20191;-73
2023/10/08 11:41:49;;;;;;;1.15;0.80;;;15.80;99.90;;;;;;5067688;28;20227;-74
2023/10/08 11:44:23;;;;;;;2.85;0.82;;;15.80;99.90;;;;;;5073134;28;20227;-73
2023/10/08 11:46:56;;;;;;;1.85;0.90;;;15.80;99.90;;;;;;5072015;28;20284;-73
2023/10/08 11:49:32;;;;;;;1.90;0.90;;;15.70;99.90;;;;;;5072280;28;20572;-73
2023/10/08 11:52:03;;;;;;;1.33;0.60;;;15.80;99.90;;;;;;5072667;28;20659;-74
2023/10/08 11:54:34;;;;;;;1.67;0.70;;;15.70;99.90;;;;;;5073088;28;20236;-74
2023/10/08 11:57:05;;;;;;;4.25;1.08;;;15.70;99.90;;;;;;5073234;28;20199;-73
2023/10/08 11:59:39;;;;;;;2.63;0.80;;;15.60;99.90;;;;;;5073169;28;20197;-74
2023/10/08 12:02:16;;;;;;;1.13;0.70;;;15.60;99.90;;;;;;5071332;28;20749;-74
2023/10/08 12:04:49;;;;;;;3.03;0.80;;;15.50;99.90;;;;;;5072299;28;20220;-74
2023/10/08 12:07:20;;;;;;;1.85;0.90;;;15.50;99.90;;;;;;5073013;28;20188;-74
2023/10/08 12:09:50;;;;;;;2.72;0.90;;;15.50;99.90;;;;;;5071448;28;20208;-74
2023/10/08 12:12:23;;;;;;;2.75;0.95;;;15.40;99.90;;;;;;5071368;28;20207;-74
2023/10/08 12:14:54;;;;;;;2.92;0.82;;;15.40;99.90;;;;;;5070617;28;20201;-73
2023/10/08 12:17:37;;;;;;;2.10;1.05;;;15.40;99.90;;;;;;5068502;28;20199;-74
2023/10/08 12:22:54;;;;;;;2.33;1.27;;;15.30;99.90;;;;;;5067416;28;20251;-74
2023/10/08 12:25:25;;;;;;;1.67;1.10;;;15.20;99.90;;;;;;5075243;28;20197;-74
2023/10/08 12:27:57;;;;;;;3.38;1.45;;;15.20;99.90;;;;;;5075735;28;20197;-74
2023/10/08 12:30:30;;;;;;;1.10;1.00;;;15.20;99.90;;;;;;5075347;28;20235;-74
2023/10/08 12:33:01;;;;;;;2.10;1.38;;;15.10;99.90;;;;;;5072513;28;20229;-73
2023/10/08 12:35:34;;;;;;;2.45;1.20;;;15.10;99.90;;;;;;5072675;28;20243;-74
2023/10/08 12:38:05;;;;;;;2.80;1.10;;;15.10;99.90;;;;;;5074096;28;20197;-73
2023/10/08 12:40:42;;;;;;;1.92;0.90;;;15.10;99.90;;;;;;5072722;28;20233;-73
2023/10/08 12:43:13;;;;;;;1.73;0.90;;;15.00;99.90;;;;;;5070982;28;20193;-74
2023/10/08 12:45:45;;;;;;;2.15;1.00;;;15.00;99.90;;;;;;5073924;28;20203;-73
2023/10/08 12:48:15;;;;;;;3.30;1.20;;;15.00;99.90;;;;;;5072639;28;20193;-74
2023/10/08 12:50:52;;;;;;;2.50;1.00;;;15.00;99.90;;;;;;5075348;28;20197;-73
2023/10/08 12:53:33;;;;;;;2.75;1.05;;;15.00;99.90;;;;;;5075816;28;20185;-73
2023/10/08 12:56:07;;;;;;;1.15;0.75;;;14.90;99.90;;;;;;5056133;28;20235;-74
2023/10/08 12:58:41;;;;;;;3.10;1.00;;;14.90;99.90;;;;;;5056210;28;20268;-74
2023/10/08 13:01:13;;;;;;;2.08;1.00;;;14.90;99.90;;;;;;5055221;28;20700;-74
2023/10/08 13:03:47;;;;;;;2.25;1.05;;;14.80;99.90;;;;;;5055396;28;20233;-73
2023/10/08 13:06:28;;;;;;;3.15;1.08;;;14.80;99.90;;;;;;5055920;28;20553;-73
2023/10/08 13:08:59;;;;;;;1.83;1.15;;;14.80;99.90;;;;;;5066036;28;20189;-74
2023/10/08 13:11:34;;;;;;;2.03;0.95;;;14.70;99.90;;;;;;5072419;28;20193;-73
2023/10/08 13:14:04;;;;;;;3.53;1.20;;;14.80;99.90;;;;;;5073703;28;20196;-74
2023/10/08 13:16:37;;;;;;;2.95;1.10;;;14.70;99.90;;;;;;5074110;28;20193;-74
2023/10/08 13:19:08;;;;;;;2.35;1.10;;;14.70;99.90;;;;;;5075829;28;20216;-74
2023/10/08 13:21:41;;;;;;;1.73;1.00;;;14.70;99.90;;;;;;5074203;28;20602;-74
2023/10/08 13:24:12;;;;;;;1.63;1.00;;;14.70;99.90;;;;;;5073607;28;20221;-74
2023/10/08 13:26:47;;;;;;;2.00;1.10;;;14.70;99.90;;;;;;5075710;28;20193;-74
2023/10/08 13:29:18;;;;;;;2.05;1.00;;;14.70;99.90;;;;;;5073799;28;20195;-74
2023/10/08 13:31:49;;;;;;;2.17;1.02;;;14.70;99.90;;;;;;5075536;28;20189;-73
2023/10/08 13:34:21;;;;;;;2.22;1.00;;;14.70;99.90;;;;;;5070592;28;20236;-74
2023/10/08 13:36:54;;;;;;;2.92;1.10;;;14.60;99.90;;;;;;5074998;28;20201;-74
2023/10/08 13:39:24;;;;;;;2.08;1.10;;;14.60;99.90;;;;;;5073834;28;20200;-74
2023/10/08 13:41:57;;;;;;;1.58;0.95;;;14.60;99.90;;;;;;5072648;28;20230;-73
2023/10/08 13:44:28;;;;;;;2.78;1.08;;;14.50;99.90;;;;;;5072999;28;20217;-74
2023/10/08 13:47:00;;;;;;;2.72;1.20;;;14.50;99.90;;;;;;5074144;28;20201;-73